sensor_id;sensor_type;location;lat;lon;timestamp;temperature;humidity
33715;DHT22;20043;50.998;4.754;2024-01-15T00:02:00;3.50;99.90
33715;DHT22;20043;50.998;4.754;2024-01-15T00:04:26;3.60;99.90
33715;DHT22;20043;50.998;4.754;2024-01-15T00:06:51;3.60;99.90
33715;DHT22;20043;50.998;4.754;2024-01-15T00:09:17;3.40;99.90
33715;DHT22;20043;50.998;4.754;2024-01-15T00:11:43;3.50;99.90
33715;DHT22;20043;50.998;4.754;2024-01-15T00:14:09;3.60;99.90
33715;DHT22;20043;50.998;4.754;2024-01-15T00:16:34;3.60;99.90
33715;DHT22;20043;50.998;4.754;2024-01-15T00:19:00;3.70;99.90
33715;DHT22;20043;50.998;4.754;2024-01-15T00:21:26;3.80;99.90
33715;DHT22;20043;50.998;4.754;2024-01-15T00:23:52;3.90;99.90
33715;DHT22;20043;50.998;4.754;2024-01-15T00:26:18;3.70;99.90
33715;DHT22;20043;50.998;4.754;2024-01-15T00:28:43;3.70;99.90
33715;DHT22;20043;50.998;4.754;2024-01-15T00:31:09;3.80;99.90
33715;DHT22;20043;50.998;4.754;2024-01-15T00:33:35;3.90;99.90
33715;DHT22;20043;50.998;4.754;2024-01-15T00:36:00;3.90;99.90
33715;DHT22;20043;50.998;4.754;2024-01-15T00:38:26;3.90;99.90
33715;DHT22;20043;50.998;4.754;2024-01-15T00:40:52;4.00;99.90
33715;DHT22;20043;50.998;4.754;2024-01-15T00:43:17;3.90;99.90
33715;DHT22;20043;50.998;4.754;2024-01-15T00:45:44;3.90;99.90
33715;DHT22;20043;50.998;4.754;2024-01-15T00:48:10;3.90;99.90
33715;DHT22;20043;50.998;4.754;2024-01-15T00:50:36;3.80;99.90
33715;DHT22;20043;50.998;4.754;2024-01-15T00:53:01;3.80;99.90
33715;DHT22;20043;50.998;4.754;2024-01-15T00:55:28;3.80;99.90
33715;DHT22;20043;50.998;4.754;2024-01-15T00:57:54;3.70;99.90
33715;DHT22;20043;50.998;4.754;2024-01-15T01:00:20;3.60;99.90
33715;DHT22;20043;50.998;4.754;2024-01-15T01:02:46;3.60;99.90
33715;DHT22;20043;50.998;4.754;2024-01-15T01:05:11;3.60;99.90
33715;DHT22;20043;50.998;4.754;2024-01-15T01:07:37;3.50;99.90
33715;DHT22;20043;50.998;4.754;2024-01-15T01:10:03;3.50;99.90
33715;DHT22;20043;50.998;4.754;2024-01-15T01:12:29;3.50;99.90
33715;DHT22;20043;50.998;4.754;2024-01-15T01:14:55;3.50;99.90
33715;DHT22;20043;50.998;4.754;2024-01-15T01:17:21;3.40;99.90
33715;DHT22;20043;50.998;4.754;2024-01-15T01:19:47;3.30;99.90
33715;DHT22;20043;50.998;4.754;2024-01-15T01:22:12;3.30;99.90
33715;DHT22;20043;50.998;4.754;2024-01-15T01:24:38;3.30;99.90
33715;DHT22;20043;50.998;4.754;2024-01-15T01:27:04;3.20;99.90
33715;DHT22;20043;50.998;4.754;2024-01-15T01:29:29;3.10;99.90
33715;DHT22;20043;50.998;4.754;2024-01-15T01:31:55;3.10;99.90
33715;DHT22;20043;50.998;4.754;2024-01-15T01:34:22;3.10;99.90
33715;DHT22;20043;50.998;4.754;2024-01-15T01:36:47;3.10;99.90
33715;DHT22;20043;50.998;4.754;2024-01-15T01:39:13;3.20;99.90
33715;DHT22;20043;50.998;4.754;2024-01-15T01:41:39;3.20;99.90
33715;DHT22;20043;50.998;4.754;2024-01-15T01:44:05;3.20;99.90
33715;DHT22;20043;50.998;4.754;2024-01-15T01:46:31;3.20;99.90
33715;DHT22;20043;50.998;4.754;2024-01-15T01:48:57;3.10;99.90
33715;DHT22;20043;50.998;4.754;2024-01-15T01:51:24;3.00;99.90
33715;DHT22;20043;50.998;4.754;2024-01-15T01:53:50;3.00;99.90
33715;DHT22;20043;50.998;4.754;2024-01-15T01:56:17;3.00;99.90
33715;DHT22;20043;50.998;4.754;2024-01-15T01:58:44;3.00;99.90
33715;DHT22;20043;50.998;4.754;2024-01-15T02:01:12;3.00;99.90
33715;DHT22;20043;50.998;4.754;2024-01-15T02:03:39;3.10;99.90
33715;DHT22;20043;50.998;4.754;2024-01-15T02:06:06;3.10;99.90
33715;DHT22;20043;50.998;4.754;2024-01-15T02:08:31;3.10;99.90
33715;DHT22;20043;50.998;4.754;2024-01-15T02:10:58;3.20;99.90
33715;DHT22;20043;50.998;4.754;2024-01-15T02:13:23;3.40;99.90
33715;DHT22;20043;50.998;4.754;2024-01-15T02:15:49;3.40;99.90
33715;DHT22;20043;50.998;4.754;2024-01-15T02:18:14;3.50;99.90
33715;DHT22;20043;50.998;4.754;2024-01-15T02:20:40;3.40;99.90
33715;DHT22;20043;50.998;4.754;2024-01-15T02:23:13;3.50;99.90
33715;DHT22;20043;50.998;4.754;2024-01-15T02:25:44;3.50;99.90
33715;DHT22;20043;50.998;4.754;2024-01-15T02:28:17;3.40;99.90
33715;DHT22;20043;50.998;4.754;2024-01-15T02:30:43;3.30;99.90
33715;DHT22;20043;50.998;4.754;2024-01-15T02:33:10;3.30;99.90
33715;DHT22;20043;50.998;4.754;2024-01-15T02:35:36;3.30;99.90
33715;DHT22;20043;50.998;4.754;2024-01-15T02:38:03;3.30;99.90
33715;DHT22;20043;50.998;4.754;2024-01-15T02:40:29;3.30;99.90
33715;DHT22;20043;50.998;4.754;2024-01-15T02:42:54;3.20;99.90
33715;DHT22;20043;50.998;4.754;2024-01-15T02:45:21;3.30;99.90
33715;DHT22;20043;50.998;4.754;2024-01-15T02:47:46;3.20;99.90
33715;DHT22;20043;50.998;4.754;2024-01-15T02:50:12;3.10;99.90
33715;DHT22;20043;50.998;4.754;2024-01-15T02:52:38;3.30;99.90
33715;DHT22;20043;50.998;4.754;2024-01-15T02:55:04;3.30;99.90
33715;DHT22;20043;50.998;4.754;2024-01-15T02:57:29;3.40;99.90
33715;DHT22;20043;50.998;4.754;2024-01-15T02:59:55;3.40;99.90
33715;DHT22;20043;50.998;4.754;2024-01-15T03:02:21;3.50;99.90
33715;DHT22;20043;50.998;4.754;2024-01-15T03:04:46;3.50;99.90
33715;DHT22;20043;50.998;4.754;2024-01-15T03:07:12;3.40;99.90
33715;DHT22;20043;50.998;4.754;2024-01-15T03:09:38;3.40;99.90
33715;DHT22;20043;50.998;4.754;2024-01-15T03:12:04;3.40;99.90
33715;DHT22;20043;50.998;4.754;2024-01-15T03:14:30;3.30;99.90
33715;DHT22;20043;50.998;4.754;2024-01-15T03:16:56;3.40;99.90
33715;DHT22;20043;50.998;4.754;2024-01-15T03:19:21;3.40;99.90
33715;DHT22;20043;50.998;4.754;2024-01-15T03:21:47;3.50;99.90
33715;DHT22;20043;50.998;4.754;2024-01-15T03:24:13;3.30;99.90
33715;DHT22;20043;50.998;4.754;2024-01-15T03:26:38;3.40;99.90
33715;DHT22;20043;50.998;4.754;2024-01-15T03:29:04;3.40;99.90
33715;DHT22;20043;50.998;4.754;2024-01-15T03:31:29;3.30;99.90
33715;DHT22;20043;50.998;4.754;2024-01-15T03:33:55;3.30;99.90
33715;DHT22;20043;50.998;4.754;2024-01-15T03:36:21;3.30;99.90
33715;DHT22;20043;50.998;4.754;2024-01-15T03:38:47;3.20;99.90
33715;DHT22;20043;50.998;4.754;2024-01-15T03:41:13;3.30;99.90
33715;DHT22;20043;50.998;4.754;2024-01-15T03:43:38;3.40;99.90
33715;DHT22;20043;50.998;4.754;2024-01-15T03:46:05;3.50;99.90
33715;DHT22;20043;50.998;4.754;2024-01-15T03:48:31;3.50;99.90
33715;DHT22;20043;50.998;4.754;2024-01-15T03:50:56;3.40;99.90
33715;DHT22;20043;50.998;4.754;2024-01-15T03:53:22;3.40;99.90
33715;DHT22;20043;50.998;4.754;2024-01-15T03:55:47;3.50;99.90
33715;DHT22;20043;50.998;4.754;2024-01-15T03:58:13;3.50;99.90
33715;DHT22;20043;50.998;4.754;2024-01-15T04:00:40;3.60;99.90
33715;DHT22;20043;50.998;4.754;2024-01-15T04:03:06;3.50;99.90
33715;DHT22;20043;50.998;4.754;2024-01-15T04:05:31;3.60;99.90
33715;DHT22;20043;50.998;4.754;2024-01-15T04:07:57;3.50;99.90
33715;DHT22;20043;50.998;4.754;2024-01-15T04:10:23;3.60;99.90
33715;DHT22;20043;50.998;4.754;2024-01-15T04:12:49;3.60;99.90
33715;DHT22;20043;50.998;4.754;2024-01-15T04:15:15;3.70;99.90
33715;DHT22;20043;50.998;4.754;2024-01-15T04:17:40;3.70;99.90
33715;DHT22;20043;50.998;4.754;2024-01-15T04:20:06;3.60;99.90
33715;DHT22;20043;50.998;4.754;2024-01-15T04:22:33;3.60;99.90
33715;DHT22;20043;50.998;4.754;2024-01-15T04:24:59;3.60;99.90
33715;DHT22;20043;50.998;4.754;2024-01-15T04:27:25;3.50;99.90
33715;DHT22;20043;50.998;4.754;2024-01-15T04:29:50;3.40;99.90
33715;DHT22;20043;50.998;4.754;2024-01-15T04:32:16;3.30;99.90
33715;DHT22;20043;50.998;4.754;2024-01-15T04:34:41;3.20;99.90
33715;DHT22;20043;50.998;4.754;2024-01-15T04:37:07;3.20;99.90
33715;DHT22;20043;50.998;4.754;2024-01-15T04:39:33;3.20;99.90
33715;DHT22;20043;50.998;4.754;2024-01-15T04:41:58;3.20;99.90
33715;DHT22;20043;50.998;4.754;2024-01-15T04:44:24;3.20;99.90
33715;DHT22;20043;50.998;4.754;2024-01-15T04:46:49;3.20;99.90
33715;DHT22;20043;50.998;4.754;2024-01-15T04:49:15;3.20;99.90
33715;DHT22;20043;50.998;4.754;2024-01-15T04:51:40;3.20;99.90
33715;DHT22;20043;50.998;4.754;2024-01-15T04:54:06;3.20;99.90
33715;DHT22;20043;50.998;4.754;2024-01-15T04:56:32;3.10;99.90
33715;DHT22;20043;50.998;4.754;2024-01-15T04:58:57;3.00;99.90
33715;DHT22;20043;50.998;4.754;2024-01-15T05:01:23;3.10;99.90
33715;DHT22;20043;50.998;4.754;2024-01-15T05:03:48;3.00;99.90
33715;DHT22;20043;50.998;4.754;2024-01-15T05:06:15;3.00;99.90
33715;DHT22;20043;50.998;4.754;2024-01-15T05:08:41;2.90;99.90
33715;DHT22;20043;50.998;4.754;2024-01-15T05:11:06;2.90;99.90
33715;DHT22;20043;50.998;4.754;2024-01-15T05:13:32;2.90;99.90
33715;DHT22;20043;50.998;4.754;2024-01-15T05:15:58;3.00;99.90
33715;DHT22;20043;50.998;4.754;2024-01-15T05:18:23;3.00;99.90
33715;DHT22;20043;50.998;4.754;2024-01-15T05:20:49;2.90;99.90
33715;DHT22;20043;50.998;4.754;2024-01-15T05:23:15;2.80;99.90
33715;DHT22;20043;50.998;4.754;2024-01-15T05:25:40;2.80;99.90
33715;DHT22;20043;50.998;4.754;2024-01-15T05:28:06;2.90;99.90
33715;DHT22;20043;50.998;4.754;2024-01-15T05:30:31;2.80;99.90
33715;DHT22;20043;50.998;4.754;2024-01-15T05:32:57;2.80;99.90
33715;DHT22;20043;50.998;4.754;2024-01-15T05:35:26;2.80;99.90
33715;DHT22;20043;50.998;4.754;2024-01-15T05:37:52;2.80;99.90
33715;DHT22;20043;50.998;4.754;2024-01-15T05:40:17;2.80;99.90
33715;DHT22;20043;50.998;4.754;2024-01-15T05:42:43;2.90;99.90
33715;DHT22;20043;50.998;4.754;2024-01-15T05:45:09;2.90;99.90
33715;DHT22;20043;50.998;4.754;2024-01-15T05:47:34;2.90;99.90
33715;DHT22;20043;50.998;4.754;2024-01-15T05:50:01;2.90;99.90
33715;DHT22;20043;50.998;4.754;2024-01-15T05:52:26;2.90;99.90
33715;DHT22;20043;50.998;4.754;2024-01-15T05:54:52;3.00;99.90
33715;DHT22;20043;50.998;4.754;2024-01-15T05:57:17;2.90;99.90
33715;DHT22;20043;50.998;4.754;2024-01-15T05:59:44;3.00;99.90
33715;DHT22;20043;50.998;4.754;2024-01-15T06:02:10;3.00;99.90
33715;DHT22;20043;50.998;4.754;2024-01-15T06:04:36;3.00;99.90
33715;DHT22;20043;50.998;4.754;2024-01-15T06:07:02;3.00;99.90
33715;DHT22;20043;50.998;4.754;2024-01-15T06:09:27;2.90;99.90
33715;DHT22;20043;50.998;4.754;2024-01-15T06:11:54;2.80;99.90
33715;DHT22;20043;50.998;4.754;2024-01-15T06:14:19;2.80;99.90
33715;DHT22;20043;50.998;4.754;2024-01-15T06:16:45;2.90;99.90
33715;DHT22;20043;50.998;4.754;2024-01-15T06:19:17;2.90;99.90
33715;DHT22;20043;50.998;4.754;2024-01-15T06:21:42;2.90;99.90
33715;DHT22;20043;50.998;4.754;2024-01-15T06:24:08;2.90;99.90
33715;DHT22;20043;50.998;4.754;2024-01-15T06:26:35;2.90;99.90
33715;DHT22;20043;50.998;4.754;2024-01-15T06:29:01;2.90;99.90
33715;DHT22;20043;50.998;4.754;2024-01-15T06:31:28;3.00;99.90
33715;DHT22;20043;50.998;4.754;2024-01-15T06:33:55;2.90;99.90
33715;DHT22;20043;50.998;4.754;2024-01-15T06:36:20;3.00;99.90
33715;DHT22;20043;50.998;4.754;2024-01-15T06:38:47;3.00;99.90
33715;DHT22;20043;50.998;4.754;2024-01-15T06:41:12;3.00;99.90
33715;DHT22;20043;50.998;4.754;2024-01-15T06:43:38;3.00;99.90
33715;DHT22;20043;50.998;4.754;2024-01-15T06:46:04;3.10;99.90
33715;DHT22;20043;50.998;4.754;2024-01-15T06:48:29;3.10;99.90
33715;DHT22;20043;50.998;4.754;2024-01-15T06:50:55;3.10;99.90
33715;DHT22;20043;50.998;4.754;2024-01-15T06:53:20;3.10;99.90
33715;DHT22;20043;50.998;4.754;2024-01-15T06:55:46;3.10;99.90
33715;DHT22;20043;50.998;4.754;2024-01-15T06:58:12;3.10;99.90
33715;DHT22;20043;50.998;4.754;2024-01-15T07:00:37;3.10;99.90
33715;DHT22;20043;50.998;4.754;2024-01-15T07:03:03;3.10;99.90
33715;DHT22;20043;50.998;4.754;2024-01-15T07:05:29;3.10;99.90
33715;DHT22;20043;50.998;4.754;2024-01-15T07:07:56;3.10;99.90
33715;DHT22;20043;50.998;4.754;2024-01-15T07:10:21;3.10;99.90
33715;DHT22;20043;50.998;4.754;2024-01-15T07:12:47;3.10;99.90
33715;DHT22;20043;50.998;4.754;2024-01-15T07:15:13;3.20;99.90
33715;DHT22;20043;50.998;4.754;2024-01-15T07:17:39;3.20;99.90
33715;DHT22;20043;50.998;4.754;2024-01-15T07:20:07;3.10;99.90
33715;DHT22;20043;50.998;4.754;2024-01-15T07:22:36;3.20;99.90
33715;DHT22;20043;50.998;4.754;2024-01-15T07:25:02;3.20;99.90
33715;DHT22;20043;50.998;4.754;2024-01-15T07:27:27;3.30;99.90
33715;DHT22;20043;50.998;4.754;2024-01-15T07:29:53;3.20;99.90
33715;DHT22;20043;50.998;4.754;2024-01-15T07:32:18;3.20;99.90
33715;DHT22;20043;50.998;4.754;2024-01-15T07:34:46;3.20;99.90
33715;DHT22;20043;50.998;4.754;2024-01-15T07:37:11;3.30;99.90
33715;DHT22;20043;50.998;4.754;2024-01-15T07:39:37;3.30;99.90
33715;DHT22;20043;50.998;4.754;2024-01-15T07:42:03;3.30;99.90
33715;DHT22;20043;50.998;4.754;2024-01-15T07:44:29;3.30;99.90
33715;DHT22;20043;50.998;4.754;2024-01-15T07:46:55;3.30;99.90
33715;DHT22;20043;50.998;4.754;2024-01-15T07:49:20;3.30;99.90
33715;DHT22;20043;50.998;4.754;2024-01-15T07:51:46;3.30;99.90
33715;DHT22;20043;50.998;4.754;2024-01-15T07:54:11;3.40;99.90
33715;DHT22;20043;50.998;4.754;2024-01-15T07:57:02;3.60;99.90
33715;DHT22;20043;50.998;4.754;2024-01-15T07:59:30;3.50;99.90
33715;DHT22;20043;50.998;4.754;2024-01-15T08:01:58;3.60;99.90
33715;DHT22;20043;50.998;4.754;2024-01-15T08:04:24;3.50;99.90
33715;DHT22;20043;50.998;4.754;2024-01-15T08:06:50;3.50;99.90
33715;DHT22;20043;50.998;4.754;2024-01-15T08:09:15;3.50;99.90
33715;DHT22;20043;50.998;4.754;2024-01-15T08:11:42;3.50;99.90
33715;DHT22;20043;50.998;4.754;2024-01-15T08:14:09;3.60;99.90
33715;DHT22;20043;50.998;4.754;2024-01-15T08:16:38;3.50;99.90
33715;DHT22;20043;50.998;4.754;2024-01-15T08:19:04;3.50;99.90
33715;DHT22;20043;50.998;4.754;2024-01-15T08:21:30;3.70;99.90
33715;DHT22;20043;50.998;4.754;2024-01-15T08:24:01;3.60;99.90
33715;DHT22;20043;50.998;4.754;2024-01-15T08:26:27;3.70;99.90
33715;DHT22;20043;50.998;4.754;2024-01-15T08:28:53;3.90;99.90
33715;DHT22;20043;50.998;4.754;2024-01-15T08:31:19;3.90;99.90
33715;DHT22;20043;50.998;4.754;2024-01-15T08:33:44;3.80;99.90
33715;DHT22;20043;50.998;4.754;2024-01-15T08:36:10;3.90;99.90
33715;DHT22;20043;50.998;4.754;2024-01-15T08:38:36;3.90;99.90
33715;DHT22;20043;50.998;4.754;2024-01-15T08:41:01;3.70;99.90
33715;DHT22;20043;50.998;4.754;2024-01-15T08:43:27;3.70;99.90
33715;DHT22;20043;50.998;4.754;2024-01-15T08:45:53;3.70;99.90
33715;DHT22;20043;50.998;4.754;2024-01-15T08:48:19;3.70;99.90
33715;DHT22;20043;50.998;4.754;2024-01-15T08:50:44;3.70;99.90
33715;DHT22;20043;50.998;4.754;2024-01-15T08:53:13;3.70;99.90
33715;DHT22;20043;50.998;4.754;2024-01-15T08:55:39;3.70;99.90
33715;DHT22;20043;50.998;4.754;2024-01-15T08:58:05;3.70;99.90
33715;DHT22;20043;50.998;4.754;2024-01-15T09:00:31;3.50;99.90
33715;DHT22;20043;50.998;4.754;2024-01-15T09:02:57;3.50;99.90
33715;DHT22;20043;50.998;4.754;2024-01-15T09:05:23;3.50;99.90
33715;DHT22;20043;50.998;4.754;2024-01-15T09:07:49;3.50;99.90
33715;DHT22;20043;50.998;4.754;2024-01-15T09:10:16;3.50;99.90
33715;DHT22;20043;50.998;4.754;2024-01-15T09:12:42;3.60;99.90
33715;DHT22;20043;50.998;4.754;2024-01-15T09:15:08;3.60;99.90
33715;DHT22;20043;50.998;4.754;2024-01-15T09:17:33;3.50;99.90
33715;DHT22;20043;50.998;4.754;2024-01-15T09:19:59;3.50;99.90
33715;DHT22;20043;50.998;4.754;2024-01-15T09:22:25;3.60;99.90
33715;DHT22;20043;50.998;4.754;2024-01-15T09:24:51;3.70;99.90
33715;DHT22;20043;50.998;4.754;2024-01-15T09:27:16;3.80;99.90
33715;DHT22;20043;50.998;4.754;2024-01-15T09:29:42;3.80;99.90
33715;DHT22;20043;50.998;4.754;2024-01-15T09:32:11;3.80;99.90
33715;DHT22;20043;50.998;4.754;2024-01-15T09:34:36;3.80;99.90
33715;DHT22;20043;50.998;4.754;2024-01-15T09:37:02;3.90;99.90
33715;DHT22;20043;50.998;4.754;2024-01-15T09:39:30;3.90;99.90
33715;DHT22;20043;50.998;4.754;2024-01-15T09:41:57;3.90;99.90
33715;DHT22;20043;50.998;4.754;2024-01-15T09:44:23;3.80;99.90
33715;DHT22;20043;50.998;4.754;2024-01-15T09:46:49;3.80;99.90
33715;DHT22;20043;50.998;4.754;2024-01-15T09:49:16;3.90;99.90
33715;DHT22;20043;50.998;4.754;2024-01-15T09:51:42;3.80;99.90
33715;DHT22;20043;50.998;4.754;2024-01-15T09:54:09;3.90;99.90
33715;DHT22;20043;50.998;4.754;2024-01-15T09:56:35;3.90;99.90
33715;DHT22;20043;50.998;4.754;2024-01-15T09:59:01;4.10;99.90
33715;DHT22;20043;50.998;4.754;2024-01-15T10:01:30;4.00;99.90
33715;DHT22;20043;50.998;4.754;2024-01-15T10:03:56;3.90;99.90
33715;DHT22;20043;50.998;4.754;2024-01-15T10:06:22;4.00;99.90
33715;DHT22;20043;50.998;4.754;2024-01-15T10:08:50;4.10;99.90
33715;DHT22;20043;50.998;4.754;2024-01-15T10:11:16;4.20;99.90
33715;DHT22;20043;50.998;4.754;2024-01-15T10:13:43;4.30;99.90
33715;DHT22;20043;50.998;4.754;2024-01-15T10:16:10;4.40;99.90
33715;DHT22;20043;50.998;4.754;2024-01-15T10:18:36;4.50;99.90
33715;DHT22;20043;50.998;4.754;2024-01-15T10:21:11;4.60;99.90
33715;DHT22;20043;50.998;4.754;2024-01-15T10:23:36;4.60;99.90
33715;DHT22;20043;50.998;4.754;2024-01-15T10:26:03;4.60;99.90
33715;DHT22;20043;50.998;4.754;2024-01-15T10:28:30;4.50;99.90
33715;DHT22;20043;50.998;4.754;2024-01-15T10:30:58;4.50;99.90
33715;DHT22;20043;50.998;4.754;2024-01-15T10:33:33;4.60;99.90
33715;DHT22;20043;50.998;4.754;2024-01-15T10:36:00;4.70;99.90
33715;DHT22;20043;50.998;4.754;2024-01-15T10:38:26;4.90;99.90
33715;DHT22;20043;50.998;4.754;2024-01-15T10:40:55;4.90;99.90
33715;DHT22;20043;50.998;4.754;2024-01-15T10:43:21;4.90;99.90
33715;DHT22;20043;50.998;4.754;2024-01-15T10:45:51;4.70;99.90
33715;DHT22;20043;50.998;4.754;2024-01-15T10:48:18;4.70;99.90
33715;DHT22;20043;50.998;4.754;2024-01-15T10:50:45;4.70;99.90
33715;DHT22;20043;50.998;4.754;2024-01-15T10:53:14;4.80;99.90
33715;DHT22;20043;50.998;4.754;2024-01-15T10:55:42;4.90;99.90
33715;DHT22;20043;50.998;4.754;2024-01-15T10:58:09;5.00;99.90
33715;DHT22;20043;50.998;4.754;2024-01-15T11:00:36;5.00;99.90
33715;DHT22;20043;50.998;4.754;2024-01-15T11:03:03;5.00;99.90
33715;DHT22;20043;50.998;4.754;2024-01-15T11:05:37;5.20;99.90
33715;DHT22;20043;50.998;4.754;2024-01-15T11:08:05;5.20;99.90
33715;DHT22;20043;50.998;4.754;2024-01-15T11:10:45;5.20;99.90
33715;DHT22;20043;50.998;4.754;2024-01-15T11:18:26;5.50;99.90
33715;DHT22;20043;50.998;4.754;2024-01-15T11:21:20;5.50;99.90
33715;DHT22;20043;50.998;4.754;2024-01-15T11:28:55;5.30;99.90
33715;DHT22;20043;50.998;4.754;2024-01-15T11:31:29;5.30;99.90
33715;DHT22;20043;50.998;4.754;2024-01-15T11:33:55;5.30;99.90
33715;DHT22;20043;50.998;4.754;2024-01-15T11:36:42;5.20;99.90
33715;DHT22;20043;50.998;4.754;2024-01-15T11:42:00;5.20;99.90
33715;DHT22;20043;50.998;4.754;2024-01-15T11:44:26;5.20;99.90
33715;DHT22;20043;50.998;4.754;2024-01-15T11:47:03;5.30;99.90
33715;DHT22;20043;50.998;4.754;2024-01-15T11:52:11;5.10;99.90
33715;DHT22;20043;50.998;4.754;2024-01-15T11:54:38;5.30;99.90
33715;DHT22;20043;50.998;4.754;2024-01-15T11:57:09;5.50;99.90
33715;DHT22;20043;50.998;4.754;2024-01-15T11:59:37;5.80;99.90
33715;DHT22;20043;50.998;4.754;2024-01-15T12:02:03;5.90;99.90
33715;DHT22;20043;50.998;4.754;2024-01-15T12:04:29;5.90;99.90
33715;DHT22;20043;50.998;4.754;2024-01-15T12:06:54;5.80;99.90
33715;DHT22;20043;50.998;4.754;2024-01-15T12:09:20;5.70;99.90
33715;DHT22;20043;50.998;4.754;2024-01-15T12:11:54;5.40;99.90
33715;DHT22;20043;50.998;4.754;2024-01-15T12:14:24;5.30;99.90
33715;DHT22;20043;50.998;4.754;2024-01-15T12:16:50;5.20;99.90
33715;DHT22;20043;50.998;4.754;2024-01-15T12:19:16;5.00;99.90
33715;DHT22;20043;50.998;4.754;2024-01-15T12:21:41;4.60;99.90
33715;DHT22;20043;50.998;4.754;2024-01-15T12:24:07;4.00;99.90
33715;DHT22;20043;50.998;4.754;2024-01-15T12:26:33;3.70;99.90
33715;DHT22;20043;50.998;4.754;2024-01-15T12:29:02;3.40;99.90
33715;DHT22;20043;50.998;4.754;2024-01-15T12:31:29;3.30;99.90
33715;DHT22;20043;50.998;4.754;2024-01-15T12:33:56;3.40;99.90
33715;DHT22;20043;50.998;4.754;2024-01-15T12:36:21;3.70;99.90
33715;DHT22;20043;50.998;4.754;2024-01-15T12:38:47;3.80;99.90
33715;DHT22;20043;50.998;4.754;2024-01-15T12:41:13;3.90;99.90
33715;DHT22;20043;50.998;4.754;2024-01-15T12:43:45;3.90;99.90
33715;DHT22;20043;50.998;4.754;2024-01-15T12:46:10;3.90;99.90
33715;DHT22;20043;50.998;4.754;2024-01-15T12:48:36;3.80;99.90
33715;DHT22;20043;50.998;4.754;2024-01-15T12:51:06;3.60;99.90
33715;DHT22;20043;50.998;4.754;2024-01-15T12:53:31;3.60;99.90
33715;DHT22;20043;50.998;4.754;2024-01-15T12:55:57;3.60;99.90
33715;DHT22;20043;50.998;4.754;2024-01-15T12:58:22;3.30;99.90
33715;DHT22;20043;50.998;4.754;2024-01-15T13:00:48;3.20;99.90
33715;DHT22;20043;50.998;4.754;2024-01-15T13:03:14;3.00;99.90
33715;DHT22;20043;50.998;4.754;2024-01-15T13:05:41;3.00;99.90
33715;DHT22;20043;50.998;4.754;2024-01-15T13:08:06;2.90;99.90
33715;DHT22;20043;50.998;4.754;2024-01-15T13:10:32;3.00;99.90
33715;DHT22;20043;50.998;4.754;2024-01-15T13:12:58;3.10;99.90
33715;DHT22;20043;50.998;4.754;2024-01-15T13:15:23;3.20;99.90
33715;DHT22;20043;50.998;4.754;2024-01-15T13:17:49;3.30;99.90
33715;DHT22;20043;50.998;4.754;2024-01-15T13:20:15;3.30;99.90
33715;DHT22;20043;50.998;4.754;2024-01-15T13:22:40;3.30;99.90
33715;DHT22;20043;50.998;4.754;2024-01-15T13:25:09;3.30;99.90
33715;DHT22;20043;50.998;4.754;2024-01-15T13:27:34;3.30;99.90
33715;DHT22;20043;50.998;4.754;2024-01-15T13:30:00;3.30;99.90
33715;DHT22;20043;50.998;4.754;2024-01-15T13:32:34;3.30;99.90
33715;DHT22;20043;50.998;4.754;2024-01-15T13:35:00;3.30;99.90
33715;DHT22;20043;50.998;4.754;2024-01-15T13:37:25;3.40;99.90
33715;DHT22;20043;50.998;4.754;2024-01-15T13:39:51;3.30;99.90
33715;DHT22;20043;50.998;4.754;2024-01-15T13:42:24;3.20;99.90
33715;DHT22;20043;50.998;4.754;2024-01-15T13:44:56;3.10;99.90
33715;DHT22;20043;50.998;4.754;2024-01-15T13:47:21;3.10;99.90
33715;DHT22;20043;50.998;4.754;2024-01-15T13:49:47;3.00;99.90
33715;DHT22;20043;50.998;4.754;2024-01-15T13:52:13;2.90;99.90
33715;DHT22;20043;50.998;4.754;2024-01-15T13:54:39;2.90;99.90
33715;DHT22;20043;50.998;4.754;2024-01-15T13:57:04;2.90;99.90
33715;DHT22;20043;50.998;4.754;2024-01-15T13:59:32;3.00;99.90
33715;DHT22;20043;50.998;4.754;2024-01-15T14:01:57;3.00;99.90
33715;DHT22;20043;50.998;4.754;2024-01-15T14:04:23;3.20;99.90
33715;DHT22;20043;50.998;4.754;2024-01-15T14:06:49;3.10;99.90
33715;DHT22;20043;50.998;4.754;2024-01-15T14:09:14;3.20;99.90
33715;DHT22;20043;50.998;4.754;2024-01-15T14:11:40;3.20;99.90
33715;DHT22;20043;50.998;4.754;2024-01-15T14:14:06;3.30;99.90
33715;DHT22;20043;50.998;4.754;2024-01-15T14:16:33;3.40;99.90
33715;DHT22;20043;50.998;4.754;2024-01-15T14:18:59;3.40;99.90
33715;DHT22;20043;50.998;4.754;2024-01-15T14:21:24;3.50;99.90
33715;DHT22;20043;50.998;4.754;2024-01-15T14:23:50;3.50;99.90
33715;DHT22;20043;50.998;4.754;2024-01-15T14:26:15;3.50;99.90
33715;DHT22;20043;50.998;4.754;2024-01-15T14:28:41;3.40;99.90
33715;DHT22;20043;50.998;4.754;2024-01-15T14:31:07;3.30;99.90
33715;DHT22;20043;50.998;4.754;2024-01-15T14:33:33;3.30;99.90
33715;DHT22;20043;50.998;4.754;2024-01-15T14:35:58;3.30;99.90
33715;DHT22;20043;50.998;4.754;2024-01-15T14:38:24;3.30;99.90
33715;DHT22;20043;50.998;4.754;2024-01-15T14:40:49;3.30;99.90
33715;DHT22;20043;50.998;4.754;2024-01-15T14:43:15;3.30;99.90
33715;DHT22;20043;50.998;4.754;2024-01-15T14:45:41;3.40;99.90
33715;DHT22;20043;50.998;4.754;2024-01-15T14:48:07;3.50;99.90
33715;DHT22;20043;50.998;4.754;2024-01-15T14:50:32;3.60;99.90
33715;DHT22;20043;50.998;4.754;2024-01-15T14:52:58;3.60;99.90
33715;DHT22;20043;50.998;4.754;2024-01-15T14:55:23;3.70;99.90
33715;DHT22;20043;50.998;4.754;2024-01-15T14:57:49;3.80;99.90
33715;DHT22;20043;50.998;4.754;2024-01-15T15:00:15;3.90;99.90
33715;DHT22;20043;50.998;4.754;2024-01-15T15:02:42;3.80;99.90
33715;DHT22;20043;50.998;4.754;2024-01-15T15:05:09;4.00;99.90
33715;DHT22;20043;50.998;4.754;2024-01-15T15:07:36;4.00;99.90
33715;DHT22;20043;50.998;4.754;2024-01-15T15:10:02;4.10;99.90
33715;DHT22;20043;50.998;4.754;2024-01-15T15:12:30;4.10;99.90
33715;DHT22;20043;50.998;4.754;2024-01-15T15:14:55;4.00;99.90
33715;DHT22;20043;50.998;4.754;2024-01-15T15:17:21;3.90;99.90
33715;DHT22;20043;50.998;4.754;2024-01-15T15:19:47;4.00;99.90
33715;DHT22;20043;50.998;4.754;2024-01-15T15:22:13;4.10;99.90
33715;DHT22;20043;50.998;4.754;2024-01-15T15:24:38;4.10;99.90
33715;DHT22;20043;50.998;4.754;2024-01-15T15:27:05;3.80;99.90
33715;DHT22;20043;50.998;4.754;2024-01-15T15:29:33;3.70;99.90
33715;DHT22;20043;50.998;4.754;2024-01-15T15:32:01;3.60;99.90
33715;DHT22;20043;50.998;4.754;2024-01-15T15:34:28;3.60;99.90
33715;DHT22;20043;50.998;4.754;2024-01-15T15:36:53;3.70;99.90
33715;DHT22;20043;50.998;4.754;2024-01-15T15:39:19;3.60;99.90
33715;DHT22;20043;50.998;4.754;2024-01-15T15:41:45;3.70;99.90
33715;DHT22;20043;50.998;4.754;2024-01-15T15:44:10;3.60;99.90
33715;DHT22;20043;50.998;4.754;2024-01-15T15:46:38;3.60;99.90
33715;DHT22;20043;50.998;4.754;2024-01-15T15:49:04;3.50;99.90
33715;DHT22;20043;50.998;4.754;2024-01-15T15:51:32;3.60;99.90
33715;DHT22;20043;50.998;4.754;2024-01-15T15:53:58;3.70;99.90
33715;DHT22;20043;50.998;4.754;2024-01-15T15:56:24;3.70;99.90